sensor_id;sensor_type;location;lat;lon;timestamp;P1;durP1;ratioP1;P2;durP2;ratioP2
12591;SDS011;6361;52.120;5.108;2023-05-10T00:01:07;52.13;;;30.67;;
12591;SDS011;6361;52.120;5.108;2023-05-10T00:03:32;52.13;;;30.45;;
12591;SDS011;6361;52.120;5.108;2023-05-10T00:05:57;53.92;;;30.77;;
12591;SDS011;6361;52.120;5.108;2023-05-10T00:08:23;56.10;;;31.75;;
12591;SDS011;6361;52.120;5.108;2023-05-10T00:10:48;53.85;;;30.63;;
12591;SDS011;6361;52.120;5.108;2023-05-10T00:13:14;51.58;;;31.88;;
12591;SDS011;6361;52.120;5.108;2023-05-10T00:15:39;52.15;;;31.20;;
12591;SDS011;6361;52.120;5.108;2023-05-10T00:18:05;55.03;;;31.45;;
12591;SDS011;6361;52.120;5.108;2023-05-10T00:20:30;50.13;;;32.17;;
12591;SDS011;6361;52.120;5.108;2023-05-10T00:22:55;50.85;;;31.75;;
12591;SDS011;6361;52.120;5.108;2023-05-10T00:25:21;54.53;;;32.55;;
12591;SDS011;6361;52.120;5.108;2023-05-10T00:27:46;59.58;;;35.55;;
12591;SDS011;6361;52.120;5.108;2023-05-10T00:30:12;62.95;;;34.33;;
12591;SDS011;6361;52.120;5.108;2023-05-10T00:32:38;61.58;;;35.58;;
12591;SDS011;6361;52.120;5.108;2023-05-10T00:35:03;58.92;;;34.47;;
12591;SDS011;6361;52.120;5.108;2023-05-10T00:37:29;58.67;;;33.17;;
12591;SDS011;6361;52.120;5.108;2023-05-10T00:39:54;60.95;;;34.65;;
12591;SDS011;6361;52.120;5.108;2023-05-10T00:42:20;61.45;;;34.42;;
12591;SDS011;6361;52.120;5.108;2023-05-10T00:44:45;60.95;;;35.70;;
12591;SDS011;6361;52.120;5.108;2023-05-10T00:47:11;63.42;;;35.53;;
12591;SDS011;6361;52.120;5.108;2023-05-10T00:49:37;61.95;;;34.15;;
12591;SDS011;6361;52.120;5.108;2023-05-10T00:52:02;68.30;;;36.38;;
12591;SDS011;6361;52.120;5.108;2023-05-10T00:54:28;66.57;;;35.75;;
12591;SDS011;6361;52.120;5.108;2023-05-10T00:56:53;77.75;;;36.55;;
12591;SDS011;6361;52.120;5.108;2023-05-10T00:59:19;77.72;;;36.95;;
12591;SDS011;6361;52.120;5.108;2023-05-10T01:01:45;81.00;;;38.78;;
12591;SDS011;6361;52.120;5.108;2023-05-10T01:04:11;85.50;;;39.33;;
12591;SDS011;6361;52.120;5.108;2023-05-10T01:06:37;86.38;;;38.42;;
12591;SDS011;6361;52.120;5.108;2023-05-10T01:09:03;82.97;;;38.17;;
12591;SDS011;6361;52.120;5.108;2023-05-10T01:11:28;81.80;;;37.58;;
12591;SDS011;6361;52.120;5.108;2023-05-10T01:13:57;89.13;;;38.95;;
12591;SDS011;6361;52.120;5.108;2023-05-10T01:16:23;75.20;;;36.40;;
12591;SDS011;6361;52.120;5.108;2023-05-10T01:18:50;81.53;;;36.58;;
12591;SDS011;6361;52.120;5.108;2023-05-10T01:21:33;79.97;;;37.67;;
12591;SDS011;6361;52.120;5.108;2023-05-10T01:35:17;72.82;;;35.45;;
12591;SDS011;6361;52.120;5.108;2023-05-10T01:37:47;80.57;;;35.92;;
12591;SDS011;6361;52.120;5.108;2023-05-10T01:43:00;79.32;;;34.42;;
12591;SDS011;6361;52.120;5.108;2023-05-10T01:45:28;84.95;;;35.38;;
12591;SDS011;6361;52.120;5.108;2023-05-10T01:48:06;88.65;;;37.20;;
12591;SDS011;6361;52.120;5.108;2023-05-10T01:50:35;85.22;;;36.13;;
12591;SDS011;6361;52.120;5.108;2023-05-10T01:53:02;87.75;;;35.17;;
12591;SDS011;6361;52.120;5.108;2023-05-10T01:55:33;106.40;;;37.55;;
12591;SDS011;6361;52.120;5.108;2023-05-10T01:58:13;89.78;;;35.80;;
12591;SDS011;6361;52.120;5.108;2023-05-10T02:00:39;93.82;;;35.15;;
12591;SDS011;6361;52.120;5.108;2023-05-10T02:03:06;109.47;;;36.42;;
12591;SDS011;6361;52.120;5.108;2023-05-10T02:05:32;100.03;;;35.13;;
12591;SDS011;6361;52.120;5.108;2023-05-10T02:07:59;106.72;;;36.95;;
12591;SDS011;6361;52.120;5.108;2023-05-10T02:10:27;101.47;;;35.95;;
12591;SDS011;6361;52.120;5.108;2023-05-10T02:12:53;106.35;;;36.75;;
12591;SDS011;6361;52.120;5.108;2023-05-10T02:15:20;120.82;;;39.72;;
12591;SDS011;6361;52.120;5.108;2023-05-10T02:17:47;117.85;;;39.05;;
12591;SDS011;6361;52.120;5.108;2023-05-10T02:20:13;117.85;;;39.13;;
12591;SDS011;6361;52.120;5.108;2023-05-10T02:22:39;125.72;;;40.53;;
12591;SDS011;6361;52.120;5.108;2023-05-10T02:25:05;117.07;;;39.13;;
12591;SDS011;6361;52.120;5.108;2023-05-10T02:27:32;118.88;;;39.47;;
12591;SDS011;6361;52.120;5.108;2023-05-10T02:29:58;121.18;;;40.20;;
12591;SDS011;6361;52.120;5.108;2023-05-10T02:32:24;128.25;;;41.88;;
12591;SDS011;6361;52.120;5.108;2023-05-10T02:34:51;115.40;;;40.20;;
12591;SDS011;6361;52.120;5.108;2023-05-10T02:37:20;121.53;;;40.75;;
12591;SDS011;6361;52.120;5.108;2023-05-10T02:39:47;118.15;;;42.83;;
12591;SDS011;6361;52.120;5.108;2023-05-10T02:42:14;114.93;;;42.13;;
12591;SDS011;6361;52.120;5.108;2023-05-10T02:44:42;113.20;;;42.35;;
12591;SDS011;6361;52.120;5.108;2023-05-10T02:47:08;118.63;;;43.40;;
12591;SDS011;6361;52.120;5.108;2023-05-10T02:49:33;114.07;;;42.15;;
12591;SDS011;6361;52.120;5.108;2023-05-10T02:52:00;124.82;;;43.60;;
12591;SDS011;6361;52.120;5.108;2023-05-10T02:54:29;121.88;;;44.33;;
12591;SDS011;6361;52.120;5.108;2023-05-10T02:56:57;116.13;;;43.88;;
12591;SDS011;6361;52.120;5.108;2023-05-10T02:59:24;118.32;;;43.05;;
12591;SDS011;6361;52.120;5.108;2023-05-10T03:01:49;117.22;;;43.13;;
12591;SDS011;6361;52.120;5.108;2023-05-10T03:04:15;116.30;;;42.53;;
12591;SDS011;6361;52.120;5.108;2023-05-10T03:06:41;122.70;;;44.22;;
12591;SDS011;6361;52.120;5.108;2023-05-10T03:09:06;121.45;;;43.83;;
12591;SDS011;6361;52.120;5.108;2023-05-10T03:16:37;119.32;;;42.60;;
12591;SDS011;6361;52.120;5.108;2023-05-10T03:19:09;128.32;;;43.25;;
12591;SDS011;6361;52.120;5.108;2023-05-10T03:21:40;120.68;;;43.00;;
12591;SDS011;6361;52.120;5.108;2023-05-10T03:24:08;121.82;;;43.15;;
12591;SDS011;6361;52.120;5.108;2023-05-10T03:26:36;132.80;;;43.90;;
12591;SDS011;6361;52.120;5.108;2023-05-10T03:29:02;132.73;;;45.58;;
12591;SDS011;6361;52.120;5.108;2023-05-10T03:31:29;119.68;;;42.25;;
12591;SDS011;6361;52.120;5.108;2023-05-10T03:33:54;118.85;;;42.20;;
12591;SDS011;6361;52.120;5.108;2023-05-10T03:36:20;117.90;;;41.92;;
12591;SDS011;6361;52.120;5.108;2023-05-10T03:38:45;111.57;;;39.50;;
12591;SDS011;6361;52.120;5.108;2023-05-10T03:41:11;104.57;;;40.03;;
12591;SDS011;6361;52.120;5.108;2023-05-10T03:43:37;101.00;;;39.05;;
12591;SDS011;6361;52.120;5.108;2023-05-10T03:46:03;92.63;;;37.30;;
12591;SDS011;6361;52.120;5.108;2023-05-10T03:48:31;92.68;;;36.97;;
12591;SDS011;6361;52.120;5.108;2023-05-10T03:50:57;84.97;;;35.08;;
12591;SDS011;6361;52.120;5.108;2023-05-10T03:53:22;101.20;;;37.40;;
12591;SDS011;6361;52.120;5.108;2023-05-10T03:55:48;108.25;;;39.40;;
12591;SDS011;6361;52.120;5.108;2023-05-10T03:58:14;108.13;;;40.03;;
12591;SDS011;6361;52.120;5.108;2023-05-10T04:00:39;106.35;;;40.45;;
12591;SDS011;6361;52.120;5.108;2023-05-10T04:03:10;114.65;;;41.30;;
12591;SDS011;6361;52.120;5.108;2023-05-10T04:05:36;112.20;;;41.15;;
12591;SDS011;6361;52.120;5.108;2023-05-10T04:08:01;112.13;;;39.67;;
12591;SDS011;6361;52.120;5.108;2023-05-10T04:10:27;115.80;;;40.42;;
12591;SDS011;6361;52.120;5.108;2023-05-10T04:12:53;109.82;;;39.28;;
12591;SDS011;6361;52.120;5.108;2023-05-10T04:15:18;107.88;;;40.33;;
12591;SDS011;6361;52.120;5.108;2023-05-10T04:17:44;98.85;;;39.30;;
12591;SDS011;6361;52.120;5.108;2023-05-10T04:20:09;114.70;;;43.00;;
12591;SDS011;6361;52.120;5.108;2023-05-10T04:22:35;118.82;;;40.47;;
12591;SDS011;6361;52.120;5.108;2023-05-10T04:25:01;103.55;;;40.55;;
12591;SDS011;6361;52.120;5.108;2023-05-10T04:27:26;97.70;;;39.45;;
12591;SDS011;6361;52.120;5.108;2023-05-10T04:29:52;111.55;;;42.05;;
12591;SDS011;6361;52.120;5.108;2023-05-10T04:32:17;95.75;;;38.72;;
12591;SDS011;6361;52.120;5.108;2023-05-10T04:34:43;88.70;;;38.25;;
12591;SDS011;6361;52.120;5.108;2023-05-10T04:37:08;90.30;;;39.72;;
12591;SDS011;6361;52.120;5.108;2023-05-10T04:39:34;90.78;;;40.25;;
12591;SDS011;6361;52.120;5.108;2023-05-10T04:42:00;87.15;;;40.33;;
12591;SDS011;6361;52.120;5.108;2023-05-10T04:44:25;92.22;;;40.20;;
12591;SDS011;6361;52.120;5.108;2023-05-10T04:46:51;101.20;;;43.05;;
12591;SDS011;6361;52.120;5.108;2023-05-10T04:49:16;93.75;;;38.83;;
12591;SDS011;6361;52.120;5.108;2023-05-10T04:51:42;96.78;;;37.67;;
12591;SDS011;6361;52.120;5.108;2023-05-10T04:54:08;96.55;;;37.50;;
12591;SDS011;6361;52.120;5.108;2023-05-10T04:56:34;113.15;;;39.67;;
12591;SDS011;6361;52.120;5.108;2023-05-10T04:58:59;106.88;;;39.63;;
12591;SDS011;6361;52.120;5.108;2023-05-10T05:01:25;108.07;;;39.65;;
12591;SDS011;6361;52.120;5.108;2023-05-10T05:03:50;94.30;;;37.60;;
12591;SDS011;6361;52.120;5.108;2023-05-10T05:06:17;88.53;;;36.72;;
12591;SDS011;6361;52.120;5.108;2023-05-10T05:08:43;82.35;;;35.60;;
12591;SDS011;6361;52.120;5.108;2023-05-10T05:11:08;84.28;;;37.17;;
12591;SDS011;6361;52.120;5.108;2023-05-10T05:13:33;79.45;;;35.97;;
12591;SDS011;6361;52.120;5.108;2023-05-10T05:16:00;78.85;;;34.95;;
12591;SDS011;6361;52.120;5.108;2023-05-10T05:18:27;80.57;;;35.58;;
12591;SDS011;6361;52.120;5.108;2023-05-10T05:20:53;78.70;;;35.58;;
12591;SDS011;6361;52.120;5.108;2023-05-10T05:23:18;78.43;;;34.10;;
12591;SDS011;6361;52.120;5.108;2023-05-10T05:25:45;72.90;;;35.88;;
12591;SDS011;6361;52.120;5.108;2023-05-10T05:28:11;65.38;;;33.20;;
12591;SDS011;6361;52.120;5.108;2023-05-10T05:30:36;83.30;;;38.80;;
12591;SDS011;6361;52.120;5.108;2023-05-10T05:33:01;91.00;;;41.03;;
12591;SDS011;6361;52.120;5.108;2023-05-10T05:35:27;90.18;;;40.25;;
12591;SDS011;6361;52.120;5.108;2023-05-10T05:37:52;88.40;;;37.28;;
12591;SDS011;6361;52.120;5.108;2023-05-10T05:40:17;73.80;;;33.75;;
12591;SDS011;6361;52.120;5.108;2023-05-10T05:42:43;68.82;;;30.30;;
12591;SDS011;6361;52.120;5.108;2023-05-10T05:45:08;63.25;;;30.05;;
12591;SDS011;6361;52.120;5.108;2023-05-10T05:47:37;60.72;;;29.33;;
12591;SDS011;6361;52.120;5.108;2023-05-10T05:50:03;56.58;;;27.77;;
12591;SDS011;6361;52.120;5.108;2023-05-10T05:52:29;54.97;;;27.30;;
12591;SDS011;6361;52.120;5.108;2023-05-10T05:54:55;51.53;;;25.02;;
12591;SDS011;6361;52.120;5.108;2023-05-10T05:57:20;42.80;;;22.65;;
12591;SDS011;6361;52.120;5.108;2023-05-10T05:59:46;42.03;;;21.05;;
12591;SDS011;6361;52.120;5.108;2023-05-10T06:02:12;37.25;;;20.05;;
12591;SDS011;6361;52.120;5.108;2023-05-10T06:04:37;34.47;;;18.70;;
12591;SDS011;6361;52.120;5.108;2023-05-10T06:07:02;33.13;;;18.25;;
12591;SDS011;6361;52.120;5.108;2023-05-10T06:09:28;38.10;;;18.48;;
12591;SDS011;6361;52.120;5.108;2023-05-10T06:11:53;31.73;;;18.00;;
12591;SDS011;6361;52.120;5.108;2023-05-10T06:14:22;35.92;;;18.85;;
12591;SDS011;6361;52.120;5.108;2023-05-10T06:16:47;32.33;;;16.92;;
12591;SDS011;6361;52.120;5.108;2023-05-10T06:19:12;33.55;;;18.13;;
12591;SDS011;6361;52.120;5.108;2023-05-10T06:21:38;35.72;;;16.70;;
12591;SDS011;6361;52.120;5.108;2023-05-10T06:24:03;28.85;;;16.42;;
12591;SDS011;6361;52.120;5.108;2023-05-10T06:26:29;28.90;;;15.98;;
12591;SDS011;6361;52.120;5.108;2023-05-10T06:28:54;31.85;;;16.05;;
12591;SDS011;6361;52.120;5.108;2023-05-10T06:31:20;29.00;;;16.23;;
12591;SDS011;6361;52.120;5.108;2023-05-10T06:33:45;28.45;;;16.58;;
12591;SDS011;6361;52.120;5.108;2023-05-10T06:36:11;23.50;;;15.13;;
12591;SDS011;6361;52.120;5.108;2023-05-10T06:38:36;28.20;;;15.90;;
12591;SDS011;6361;52.120;5.108;2023-05-10T06:41:02;24.65;;;14.27;;
12591;SDS011;6361;52.120;5.108;2023-05-10T06:43:27;26.92;;;15.07;;
12591;SDS011;6361;52.120;5.108;2023-05-10T06:45:53;22.92;;;15.07;;
12591;SDS011;6361;52.120;5.108;2023-05-10T06:48:19;23.95;;;14.27;;
12591;SDS011;6361;52.120;5.108;2023-05-10T06:50:44;25.15;;;15.10;;
12591;SDS011;6361;52.120;5.108;2023-05-10T06:53:10;24.95;;;14.95;;
12591;SDS011;6361;52.120;5.108;2023-05-10T06:55:36;26.27;;;14.13;;
12591;SDS011;6361;52.120;5.108;2023-05-10T06:58:02;23.95;;;13.80;;
12591;SDS011;6361;52.120;5.108;2023-05-10T07:00:27;22.73;;;13.85;;
12591;SDS011;6361;52.120;5.108;2023-05-10T07:02:52;22.10;;;13.52;;
12591;SDS011;6361;52.120;5.108;2023-05-10T07:05:18;21.10;;;13.50;;
12591;SDS011;6361;52.120;5.108;2023-05-10T07:07:43;20.27;;;12.35;;
12591;SDS011;6361;52.120;5.108;2023-05-10T07:10:09;22.27;;;12.93;;
12591;SDS011;6361;52.120;5.108;2023-05-10T07:12:34;21.23;;;12.25;;
12591;SDS011;6361;52.120;5.108;2023-05-10T07:15:00;20.60;;;13.05;;
12591;SDS011;6361;52.120;5.108;2023-05-10T07:17:25;23.95;;;12.73;;
12591;SDS011;6361;52.120;5.108;2023-05-10T07:19:51;20.13;;;11.98;;
12591;SDS011;6361;52.120;5.108;2023-05-10T07:22:16;21.75;;;12.43;;
12591;SDS011;6361;52.120;5.108;2023-05-10T07:24:41;20.00;;;12.65;;
12591;SDS011;6361;52.120;5.108;2023-05-10T07:27:07;22.75;;;12.50;;
12591;SDS011;6361;52.120;5.108;2023-05-10T07:29:32;21.48;;;12.35;;
12591;SDS011;6361;52.120;5.108;2023-05-10T07:31:58;19.73;;;13.05;;
12591;SDS011;6361;52.120;5.108;2023-05-10T07:34:23;22.38;;;12.95;;
12591;SDS011;6361;52.120;5.108;2023-05-10T07:36:49;21.67;;;12.82;;
12591;SDS011;6361;52.120;5.108;2023-05-10T07:39:14;23.85;;;12.95;;
12591;SDS011;6361;52.120;5.108;2023-05-10T07:41:40;22.88;;;13.23;;
12591;SDS011;6361;52.120;5.108;2023-05-10T07:44:05;22.25;;;12.20;;
12591;SDS011;6361;52.120;5.108;2023-05-10T07:46:31;21.58;;;12.65;;
12591;SDS011;6361;52.120;5.108;2023-05-10T07:48:56;25.02;;;12.88;;
12591;SDS011;6361;52.120;5.108;2023-05-10T07:51:22;18.45;;;11.40;;
12591;SDS011;6361;52.120;5.108;2023-05-10T07:53:47;23.02;;;11.57;;
12591;SDS011;6361;52.120;5.108;2023-05-10T07:56:20;20.33;;;11.15;;
12591;SDS011;6361;52.120;5.108;2023-05-10T07:58:50;22.13;;;11.95;;
12591;SDS011;6361;52.120;5.108;2023-05-10T08:01:16;23.90;;;13.35;;
12591;SDS011;6361;52.120;5.108;2023-05-10T08:03:41;19.67;;;11.88;;
12591;SDS011;6361;52.120;5.108;2023-05-10T08:06:06;18.08;;;11.38;;
12591;SDS011;6361;52.120;5.108;2023-05-10T08:08:32;18.77;;;11.27;;
12591;SDS011;6361;52.120;5.108;2023-05-10T08:10:57;19.63;;;11.52;;
12591;SDS011;6361;52.120;5.108;2023-05-10T08:13:23;19.52;;;11.90;;
12591;SDS011;6361;52.120;5.108;2023-05-10T08:15:48;17.40;;;10.93;;
12591;SDS011;6361;52.120;5.108;2023-05-10T08:18:13;18.63;;;11.70;;
12591;SDS011;6361;52.120;5.108;2023-05-10T08:20:39;18.25;;;10.73;;
12591;SDS011;6361;52.120;5.108;2023-05-10T08:23:04;18.67;;;10.60;;
12591;SDS011;6361;52.120;5.108;2023-05-10T08:25:30;17.23;;;10.45;;
12591;SDS011;6361;52.120;5.108;2023-05-10T08:27:57;17.98;;;10.95;;
12591;SDS011;6361;52.120;5.108;2023-05-10T08:30:22;18.23;;;11.68;;
12591;SDS011;6361;52.120;5.108;2023-05-10T08:32:48;18.52;;;11.02;;
12591;SDS011;6361;52.120;5.108;2023-05-10T08:35:13;20.77;;;10.80;;
12591;SDS011;6361;52.120;5.108;2023-05-10T08:37:40;20.13;;;13.13;;
12591;SDS011;6361;52.120;5.108;2023-05-10T08:40:06;17.13;;;10.75;;
12591;SDS011;6361;52.120;5.108;2023-05-10T08:42:33;17.67;;;10.32;;
12591;SDS011;6361;52.120;5.108;2023-05-10T08:45:00;15.77;;;10.10;;
12591;SDS011;6361;52.120;5.108;2023-05-10T08:47:27;16.45;;;9.93;;
12591;SDS011;6361;52.120;5.108;2023-05-10T08:49:53;13.60;;;9.80;;
12591;SDS011;6361;52.120;5.108;2023-05-10T08:52:19;16.45;;;9.95;;
12591;SDS011;6361;52.120;5.108;2023-05-10T08:54:45;17.00;;;9.55;;
12591;SDS011;6361;52.120;5.108;2023-05-10T08:57:11;13.95;;;9.32;;
12591;SDS011;6361;52.120;5.108;2023-05-10T08:59:37;13.35;;;8.60;;
12591;SDS011;6361;52.120;5.108;2023-05-10T09:02:04;13.75;;;8.45;;
12591;SDS011;6361;52.120;5.108;2023-05-10T09:04:30;14.90;;;9.02;;
12591;SDS011;6361;52.120;5.108;2023-05-10T09:06:56;12.30;;;7.70;;
12591;SDS011;6361;52.120;5.108;2023-05-10T09:09:22;13.02;;;8.80;;
12591;SDS011;6361;52.120;5.108;2023-05-10T09:11:49;13.80;;;8.63;;
12591;SDS011;6361;52.120;5.108;2023-05-10T09:14:14;12.00;;;7.90;;
12591;SDS011;6361;52.120;5.108;2023-05-10T09:16:40;12.88;;;8.05;;
12591;SDS011;6361;52.120;5.108;2023-05-10T09:19:06;9.95;;;7.10;;
12591;SDS011;6361;52.120;5.108;2023-05-10T09:21:34;12.52;;;7.53;;
12591;SDS011;6361;52.120;5.108;2023-05-10T09:24:03;12.80;;;7.53;;
12591;SDS011;6361;52.120;5.108;2023-05-10T09:26:30;12.43;;;7.28;;
12591;SDS011;6361;52.120;5.108;2023-05-10T09:28:56;11.23;;;7.25;;
12591;SDS011;6361;52.120;5.108;2023-05-10T09:31:22;11.65;;;7.10;;
12591;SDS011;6361;52.120;5.108;2023-05-10T09:33:49;10.32;;;7.47;;
12591;SDS011;6361;52.120;5.108;2023-05-10T09:36:15;11.80;;;6.97;;
12591;SDS011;6361;52.120;5.108;2023-05-10T09:38:45;11.98;;;7.30;;
12591;SDS011;6361;52.120;5.108;2023-05-10T09:41:18;11.93;;;8.15;;
12591;SDS011;6361;52.120;5.108;2023-05-10T09:43:44;10.48;;;7.13;;
12591;SDS011;6361;52.120;5.108;2023-05-10T09:46:09;8.80;;;6.07;;
12591;SDS011;6361;52.120;5.108;2023-05-10T09:48:39;11.65;;;6.68;;
12591;SDS011;6361;52.120;5.108;2023-05-10T09:51:10;8.65;;;5.65;;
12591;SDS011;6361;52.120;5.108;2023-05-10T09:53:36;14.35;;;8.68;;
12591;SDS011;6361;52.120;5.108;2023-05-10T09:56:01;8.70;;;5.90;;
12591;SDS011;6361;52.120;5.108;2023-05-10T09:58:27;7.90;;;5.25;;
12591;SDS011;6361;52.120;5.108;2023-05-10T10:00:52;8.32;;;5.80;;
12591;SDS011;6361;52.120;5.108;2023-05-10T10:03:21;8.55;;;5.50;;
12591;SDS011;6361;52.120;5.108;2023-05-10T10:05:47;9.85;;;5.57;;
12591;SDS011;6361;52.120;5.108;2023-05-10T10:08:17;7.88;;;5.20;;
12591;SDS011;6361;52.120;5.108;2023-05-10T10:10:42;8.48;;;6.05;;
12591;SDS011;6361;52.120;5.108;2023-05-10T10:13:11;10.88;;;6.28;;
12591;SDS011;6361;52.120;5.108;2023-05-10T10:15:36;9.25;;;6.70;;
12591;SDS011;6361;52.120;5.108;2023-05-10T10:18:02;10.68;;;6.70;;
12591;SDS011;6361;52.120;5.108;2023-05-10T10:20:30;10.40;;;5.97;;
12591;SDS011;6361;52.120;5.108;2023-05-10T10:22:56;9.98;;;6.38;;
12591;SDS011;6361;52.120;5.108;2023-05-10T10:25:22;11.30;;;6.30;;
12591;SDS011;6361;52.120;5.108;2023-05-10T10:30:35;9.05;;;6.07;;
12591;SDS011;6361;52.120;5.108;2023-05-10T10:36:05;11.98;;;5.55;;
12591;SDS011;6361;52.120;5.108;2023-05-10T10:39:05;9.05;;;5.93;;
12591;SDS011;6361;52.120;5.108;2023-05-10T10:55:08;7.10;;;5.13;;
12591;SDS011;6361;52.120;5.108;2023-05-10T11:02:45;7.70;;;4.65;;
12591;SDS011;6361;52.120;5.108;2023-05-10T11:13:31;6.82;;;3.72;;
12591;SDS011;6361;52.120;5.108;2023-05-10T11:16:24;6.28;;;4.10;;
12591;SDS011;6361;52.120;5.108;2023-05-10T11:19:00;7.63;;;4.25;;
12591;SDS011;6361;52.120;5.108;2023-05-10T11:21:27;7.78;;;4.88;;
12591;SDS011;6361;52.120;5.108;2023-05-10T11:23:53;6.15;;;3.78;;
12591;SDS011;6361;52.120;5.108;2023-05-10T11:26:35;8.32;;;5.20;;
12591;SDS011;6361;52.120;5.108;2023-05-10T11:29:01;9.65;;;4.97;;
12591;SDS011;6361;52.120;5.108;2023-05-10T11:31:28;8.88;;;5.28;;
12591;SDS011;6361;52.120;5.108;2023-05-10T11:33:54;8.23;;;4.97;;
12591;SDS011;6361;52.120;5.108;2023-05-10T11:36:23;7.00;;;5.07;;
12591;SDS011;6361;52.120;5.108;2023-05-10T11:38:50;8.00;;;5.07;;
12591;SDS011;6361;52.120;5.108;2023-05-10T11:41:17;8.68;;;5.20;;
12591;SDS011;6361;52.120;5.108;2023-05-10T11:43:43;8.52;;;5.38;;
12591;SDS011;6361;52.120;5.108;2023-05-10T11:46:11;4.95;;;4.03;;
12591;SDS011;6361;52.120;5.108;2023-05-10T11:48:41;7.60;;;4.95;;
12591;SDS011;6361;52.120;5.108;2023-05-10T11:51:07;6.90;;;4.70;;
12591;SDS011;6361;52.120;5.108;2023-05-10T11:53:33;7.13;;;5.10;;
12591;SDS011;6361;52.120;5.108;2023-05-10T11:58:36;7.95;;;5.22;;
12591;SDS011;6361;52.120;5.108;2023-05-10T12:01:02;7.90;;;5.10;;
12591;SDS011;6361;52.120;5.108;2023-05-10T12:03:28;6.35;;;5.07;;
12591;SDS011;6361;52.120;5.108;2023-05-10T12:05:54;6.68;;;4.45;;
12591;SDS011;6361;52.120;5.108;2023-05-10T12:08:21;6.80;;;4.50;;
12591;SDS011;6361;52.120;5.108;2023-05-10T12:10:47;7.80;;;4.50;;
12591;SDS011;6361;52.120;5.108;2023-05-10T12:13:16;7.15;;;5.03;;
12591;SDS011;6361;52.120;5.108;2023-05-10T12:15:42;7.95;;;4.78;;
12591;SDS011;6361;52.120;5.108;2023-05-10T12:18:09;7.28;;;4.70;;
12591;SDS011;6361;52.120;5.108;2023-05-10T12:20:35;6.90;;;5.03;;
12591;SDS011;6361;52.120;5.108;2023-05-10T12:23:01;9.73;;;5.43;;
12591;SDS011;6361;52.120;5.108;2023-05-10T12:25:32;7.18;;;4.97;;
12591;SDS011;6361;52.120;5.108;2023-05-10T12:27:59;15.18;;;9.57;;
12591;SDS011;6361;52.120;5.108;2023-05-10T12:30:26;21.77;;;11.40;;
12591;SDS011;6361;52.120;5.108;2023-05-10T12:32:58;27.42;;;13.38;;
12591;SDS011;6361;52.120;5.108;2023-05-10T12:35:31;27.35;;;14.10;;
12591;SDS011;6361;52.120;5.108;2023-05-10T12:37:56;28.27;;;16.52;;
12591;SDS011;6361;52.120;5.108;2023-05-10T12:40:22;26.83;;;14.93;;
12591;SDS011;6361;52.120;5.108;2023-05-10T12:42:47;26.60;;;15.35;;
12591;SDS011;6361;52.120;5.108;2023-05-10T12:45:13;33.13;;;15.07;;
12591;SDS011;6361;52.120;5.108;2023-05-10T12:47:39;33.17;;;15.93;;
12591;SDS011;6361;52.120;5.108;2023-05-10T12:50:04;30.15;;;15.82;;
12591;SDS011;6361;52.120;5.108;2023-05-10T12:52:30;30.90;;;16.85;;
12591;SDS011;6361;52.120;5.108;2023-05-10T12:54:57;32.50;;;16.70;;
12591;SDS011;6361;52.120;5.108;2023-05-10T12:57:26;30.42;;;17.05;;
12591;SDS011;6361;52.120;5.108;2023-05-10T12:59:52;32.47;;;17.30;;
12591;SDS011;6361;52.120;5.108;2023-05-10T13:02:17;33.08;;;16.63;;
12591;SDS011;6361;52.120;5.108;2023-05-10T13:04:46;35.10;;;17.65;;
12591;SDS011;6361;52.120;5.108;2023-05-10T13:07:12;32.42;;;16.95;;
12591;SDS011;6361;52.120;5.108;2023-05-10T13:09:37;31.23;;;16.13;;
12591;SDS011;6361;52.120;5.108;2023-05-10T13:12:03;24.92;;;13.75;;
12591;SDS011;6361;52.120;5.108;2023-05-10T13:14:29;26.85;;;14.55;;
12591;SDS011;6361;52.120;5.108;2023-05-10T13:16:55;27.23;;;14.63;;
12591;SDS011;6361;52.120;5.108;2023-05-10T13:19:20;26.00;;;14.05;;
12591;SDS011;6361;52.120;5.108;2023-05-10T13:21:45;28.88;;;14.18;;
12591;SDS011;6361;52.120;5.108;2023-05-10T13:24:11;29.40;;;14.07;;
12591;SDS011;6361;52.120;5.108;2023-05-10T13:26:38;25.15;;;12.23;;
12591;SDS011;6361;52.120;5.108;2023-05-10T13:29:05;26.85;;;14.35;;
12591;SDS011;6361;52.120;5.108;2023-05-10T13:31:30;24.70;;;13.10;;
12591;SDS011;6361;52.120;5.108;2023-05-10T13:33:55;22.25;;;12.65;;
12591;SDS011;6361;52.120;5.108;2023-05-10T13:36:21;22.65;;;12.57;;
12591;SDS011;6361;52.120;5.108;2023-05-10T13:38:47;24.67;;;13.73;;
12591;SDS011;6361;52.120;5.108;2023-05-10T13:41:13;26.13;;;14.38;;
12591;SDS011;6361;52.120;5.108;2023-05-10T13:43:38;23.23;;;12.93;;
12591;SDS011;6361;52.120;5.108;2023-05-10T13:46:04;26.05;;;12.50;;
12591;SDS011;6361;52.120;5.108;2023-05-10T13:48:29;25.50;;;13.35;;
12591;SDS011;6361;52.120;5.108;2023-05-10T13:50:55;20.50;;;11.38;;
12591;SDS011;6361;52.120;5.108;2023-05-10T13:53:21;21.30;;;12.10;;
12591;SDS011;6361;52.120;5.108;2023-05-10T13:55:46;19.73;;;11.38;;
12591;SDS011;6361;52.120;5.108;2023-05-10T13:58:12;17.92;;;11.23;;
12591;SDS011;6361;52.120;5.108;2023-05-10T14:00:37;18.23;;;10.65;;
12591;SDS011;6361;52.120;5.108;2023-05-10T14:03:03;20.48;;;11.23;;
12591;SDS011;6361;52.120;5.108;2023-05-10T14:05:29;16.20;;;10.75;;
12591;SDS011;6361;52.120;5.108;2023-05-10T14:07:55;18.02;;;10.75;;
12591;SDS011;6361;52.120;5.108;2023-05-10T14:10:20;17.48;;;9.93;;
12591;SDS011;6361;52.120;5.108;2023-05-10T14:12:46;17.13;;;10.10;;
12591;SDS011;6361;52.120;5.108;2023-05-10T14:15:11;18.20;;;10.45;;
12591;SDS011;6361;52.120;5.108;2023-05-10T14:17:37;15.93;;;10.57;;
12591;SDS011;6361;52.120;5.108;2023-05-10T14:20:02;17.38;;;10.10;;
12591;SDS011;6361;52.120;5.108;2023-05-10T14:22:29;15.68;;;10.23;;
12591;SDS011;6361;52.120;5.108;2023-05-10T14:24:54;16.08;;;10.05;;
12591;SDS011;6361;52.120;5.108;2023-05-10T14:27:20;16.80;;;9.80;;
12591;SDS011;6361;52.120;5.108;2023-05-10T14:29:46;15.50;;;10.13;;
12591;SDS011;6361;52.120;5.108;2023-05-10T14:32:12;15.18;;;9.90;;
12591;SDS011;6361;52.120;5.108;2023-05-10T14:34:37;18.13;;;9.77;;
12591;SDS011;6361;52.120;5.108;2023-05-10T14:37:03;18.92;;;11.00;;
12591;SDS011;6361;52.120;5.108;2023-05-10T14:39:29;17.42;;;10.82;;
12591;SDS011;6361;52.120;5.108;2023-05-10T14:41:55;17.48;;;10.25;;
12591;SDS011;6361;52.120;5.108;2023-05-10T14:44:20;19.05;;;11.25;;
12591;SDS011;6361;52.120;5.108;2023-05-10T14:46:46;16.52;;;10.80;;
12591;SDS011;6361;52.120;5.108;2023-05-10T14:49:14;15.80;;;9.73;;
12591;SDS011;6361;52.120;5.108;2023-05-10T14:51:40;16.33;;;9.13;;
12591;SDS011;6361;52.120;5.108;2023-05-10T14:54:05;14.27;;;8.68;;
12591;SDS011;6361;52.120;5.108;2023-05-10T14:56:31;12.63;;;8.48;;
12591;SDS011;6361;52.120;5.108;2023-05-10T14:58:56;11.77;;;7.85;;
12591;SDS011;6361;52.120;5.108;2023-05-10T15:01:22;12.98;;;7.95;;
12591;SDS011;6361;52.120;5.108;2023-05-10T15:03:47;14.38;;;7.40;;
12591;SDS011;6361;52.120;5.108;2023-05-10T15:06:14;10.20;;;6.18;;
12591;SDS011;6361;52.120;5.108;2023-05-10T15:08:40;11.18;;;7.22;;
12591;SDS011;6361;52.120;5.108;2023-05-10T15:11:06;10.48;;;7.30;;
12591;SDS011;6361;52.120;5.108;2023-05-10T15:13:31;14.77;;;8.10;;
12591;SDS011;6361;52.120;5.108;2023-05-10T15:15:56;11.77;;;7.72;;
12591;SDS011;6361;52.120;5.108;2023-05-10T15:18:22;12.45;;;8.30;;
12591;SDS011;6361;52.120;5.108;2023-05-10T15:20:47;11.20;;;8.20;;
12591;SDS011;6361;52.120;5.108;2023-05-10T15:23:12;14.43;;;7.93;;
12591;SDS011;6361;52.120;5.108;2023-05-10T15:25:38;14.32;;;8.80;;
12591;SDS011;6361;52.120;5.108;2023-05-10T15:28:04;15.68;;;9.05;;